sensor_id;sensor_type;location;lat;lon;timestamp;pressure;altitude;pressure_sealevel;temperature;humidity
77939;BME280;67136;47.546;21.630;2023-08-07T00:02:18;99075.22;;;14.81;100.00
77939;BME280;67136;47.546;21.630;2023-08-07T00:05:21;99084.13;;;14.80;100.00
77939;BME280;67136;47.546;21.630;2023-08-07T00:08:24;99083.47;;;14.78;100.00
77939;BME280;67136;47.546;21.630;2023-08-07T00:11:26;99093.06;;;14.85;100.00
77939;BME280;67136;47.546;21.630;2023-08-07T00:14:30;99092.44;;;14.83;100.00
77939;BME280;67136;47.546;21.630;2023-08-07T00:17:33;99097.97;;;14.88;100.00
77939;BME280;67136;47.546;21.630;2023-08-07T00:20:35;99101.16;;;14.84;100.00
77939;BME280;67136;47.546;21.630;2023-08-07T00:23:38;99105.88;;;14.88;100.00
77939;BME280;67136;47.546;21.630;2023-08-07T00:26:40;99106.88;;;14.87;100.00
77939;BME280;67136;47.546;21.630;2023-08-07T00:29:43;99110.53;;;14.86;100.00
77939;BME280;67136;47.546;21.630;2023-08-07T00:32:46;99118.03;;;14.89;100.00
77939;BME280;67136;47.546;21.630;2023-08-07T00:35:49;99115.41;;;14.89;100.00
77939;BME280;67136;47.546;21.630;2023-08-07T00:38:51;99126.41;;;14.93;100.00
77939;BME280;67136;47.546;21.630;2023-08-07T00:41:55;99123.19;;;14.98;100.00
77939;BME280;67136;47.546;21.630;2023-08-07T00:44:58;99129.28;;;14.98;100.00
77939;BME280;67136;47.546;21.630;2023-08-07T00:48:02;99131.75;;;15.00;100.00
77939;BME280;67136;47.546;21.630;2023-08-07T00:51:05;99136.62;;;15.03;100.00
77939;BME280;67136;47.546;21.630;2023-08-07T00:54:12;99137.66;;;15.02;100.00
77939;BME280;67136;47.546;21.630;2023-08-07T00:57:16;99136.38;;;14.98;100.00
77939;BME280;67136;47.546;21.630;2023-08-07T01:00:20;99142.47;;;14.98;100.00
77939;BME280;67136;47.546;21.630;2023-08-07T01:03:23;99143.09;;;15.00;100.00
77939;BME280;67136;47.546;21.630;2023-08-07T01:06:26;99145.88;;;14.98;100.00
77939;BME280;67136;47.546;21.630;2023-08-07T01:09:28;99149.53;;;14.98;100.00
77939;BME280;67136;47.546;21.630;2023-08-07T01:16:03;99153.97;;;14.97;100.00
77939;BME280;67136;47.546;21.630;2023-08-07T01:19:27;99148.88;;;14.95;100.00
77939;BME280;67136;47.546;21.630;2023-08-07T01:22:30;99151.53;;;14.95;100.00
77939;BME280;67136;47.546;21.630;2023-08-07T01:25:32;99149.91;;;14.94;100.00
77939;BME280;67136;47.546;21.630;2023-08-07T01:28:38;99147.97;;;14.88;100.00
77939;BME280;67136;47.546;21.630;2023-08-07T01:31:44;99156.97;;;14.79;100.00
77939;BME280;67136;47.546;21.630;2023-08-07T01:34:47;99156.69;;;14.74;100.00
77939;BME280;67136;47.546;21.630;2023-08-07T01:37:52;99160.78;;;14.62;100.00
77939;BME280;67136;47.546;21.630;2023-08-07T01:40:56;99161.31;;;14.58;100.00
77939;BME280;67136;47.546;21.630;2023-08-07T01:44:00;99161.84;;;14.53;100.00
77939;BME280;67136;47.546;21.630;2023-08-07T01:47:04;99162.91;;;14.44;100.00
77939;BME280;67136;47.546;21.630;2023-08-07T01:50:07;99162.47;;;14.41;100.00
77939;BME280;67136;47.546;21.630;2023-08-07T01:53:09;99168.59;;;14.33;100.00
77939;BME280;67136;47.546;21.630;2023-08-07T01:56:13;99171.22;;;14.33;100.00
77939;BME280;67136;47.546;21.630;2023-08-07T01:59:15;99180.00;;;14.26;100.00
77939;BME280;67136;47.546;21.630;2023-08-07T02:02:18;99183.75;;;14.31;100.00
77939;BME280;67136;47.546;21.630;2023-08-07T02:05:21;99179.19;;;14.25;100.00
77939;BME280;67136;47.546;21.630;2023-08-07T02:08:23;99186.09;;;14.26;100.00
77939;BME280;67136;47.546;21.630;2023-08-07T02:11:26;99174.62;;;14.19;100.00
77939;BME280;67136;47.546;21.630;2023-08-07T02:14:29;99180.53;;;14.21;100.00
77939;BME280;67136;47.546;21.630;2023-08-07T02:17:32;99181.22;;;14.15;100.00
77939;BME280;67136;47.546;21.630;2023-08-07T02:20:35;99177.28;;;14.11;100.00
77939;BME280;67136;47.546;21.630;2023-08-07T02:23:38;99177.63;;;14.08;100.00
77939;BME280;67136;47.546;21.630;2023-08-07T02:26:41;99179.75;;;14.13;100.00
77939;BME280;67136;47.546;21.630;2023-08-07T02:29:44;99180.56;;;14.13;100.00
77939;BME280;67136;47.546;21.630;2023-08-07T02:32:46;99190.44;;;14.11;100.00
77939;BME280;67136;47.546;21.630;2023-08-07T02:35:49;99199.97;;;14.12;100.00
77939;BME280;67136;47.546;21.630;2023-08-07T02:38:54;99196.94;;;14.01;100.00
77939;BME280;67136;47.546;21.630;2023-08-07T02:41:56;99203.81;;;14.02;100.00
77939;BME280;67136;47.546;21.630;2023-08-07T02:45:00;99195.94;;;14.02;100.00
77939;BME280;67136;47.546;21.630;2023-08-07T02:48:04;99206.25;;;14.03;100.00
77939;BME280;67136;47.546;21.630;2023-08-07T02:51:08;99206.78;;;13.99;100.00
77939;BME280;67136;47.546;21.630;2023-08-07T02:54:10;99217.84;;;13.94;100.00
77939;BME280;67136;47.546;21.630;2023-08-07T02:57:13;99218.50;;;13.88;100.00
77939;BME280;67136;47.546;21.630;2023-08-07T03:00:15;99216.19;;;13.93;100.00
77939;BME280;67136;47.546;21.630;2023-08-07T03:03:18;99222.81;;;13.89;100.00
77939;BME280;67136;47.546;21.630;2023-08-07T03:06:21;99217.25;;;13.84;100.00
77939;BME280;67136;47.546;21.630;2023-08-07T03:09:23;99214.31;;;13.79;100.00
77939;BME280;67136;47.546;21.630;2023-08-07T03:12:26;99220.19;;;13.81;100.00
77939;BME280;67136;47.546;21.630;2023-08-07T03:15:29;99219.56;;;13.79;100.00
77939;BME280;67136;47.546;21.630;2023-08-07T03:18:31;99225.16;;;13.76;100.00
77939;BME280;67136;47.546;21.630;2023-08-07T03:21:34;99223.53;;;13.75;100.00
77939;BME280;67136;47.546;21.630;2023-08-07T03:24:36;99230.09;;;13.71;100.00
77939;BME280;67136;47.546;21.630;2023-08-07T03:27:40;99225.56;;;13.65;100.00
77939;BME280;67136;47.546;21.630;2023-08-07T03:30:43;99233.13;;;13.60;100.00
77939;BME280;67136;47.546;21.630;2023-08-07T03:33:48;99232.47;;;13.58;100.00
77939;BME280;67136;47.546;21.630;2023-08-07T03:36:50;99232.81;;;13.55;100.00
77939;BME280;67136;47.546;21.630;2023-08-07T03:39:53;99233.66;;;13.47;100.00
77939;BME280;67136;47.546;21.630;2023-08-07T03:42:56;99238.78;;;13.49;100.00
77939;BME280;67136;47.546;21.630;2023-08-07T03:45:59;99247.63;;;13.48;100.00
77939;BME280;67136;47.546;21.630;2023-08-07T03:49:05;99242.84;;;13.51;100.00
77939;BME280;67136;47.546;21.630;2023-08-07T03:52:08;99250.59;;;13.45;100.00
77939;BME280;67136;47.546;21.630;2023-08-07T03:55:11;99253.87;;;13.47;100.00
77939;BME280;67136;47.546;21.630;2023-08-07T03:58:13;99270.59;;;13.46;100.00
77939;BME280;67136;47.546;21.630;2023-08-07T04:01:16;99273.88;;;13.48;100.00
77939;BME280;67136;47.546;21.630;2023-08-07T04:04:19;99272.25;;;13.47;100.00
77939;BME280;67136;47.546;21.630;2023-08-07T04:07:22;99283.72;;;13.54;100.00
77939;BME280;67136;47.546;21.630;2023-08-07T04:10:24;99289.28;;;13.51;100.00
77939;BME280;67136;47.546;21.630;2023-08-07T04:13:27;99294.53;;;13.51;100.00
77939;BME280;67136;47.546;21.630;2023-08-07T04:16:30;99304.25;;;13.50;100.00
77939;BME280;67136;47.546;21.630;2023-08-07T04:19:33;99298.81;;;13.52;100.00
77939;BME280;67136;47.546;21.630;2023-08-07T04:22:36;99304.25;;;13.50;100.00
77939;BME280;67136;47.546;21.630;2023-08-07T04:25:39;99302.25;;;13.52;100.00
77939;BME280;67136;47.546;21.630;2023-08-07T04:28:42;99305.53;;;13.54;100.00
77939;BME280;67136;47.546;21.630;2023-08-07T04:31:44;99301.25;;;13.61;100.00
77939;BME280;67136;47.546;21.630;2023-08-07T04:34:47;99303.84;;;13.69;100.00
77939;BME280;67136;47.546;21.630;2023-08-07T04:37:49;99298.28;;;13.73;100.00
77939;BME280;67136;47.546;21.630;2023-08-07T04:40:52;99310.41;;;13.73;100.00
77939;BME280;67136;47.546;21.630;2023-08-07T04:43:54;99304.28;;;13.81;100.00
77939;BME280;67136;47.546;21.630;2023-08-07T04:46:57;99299.63;;;13.91;100.00
77939;BME280;67136;47.546;21.630;2023-08-07T04:50:00;99297.97;;;13.98;100.00
77939;BME280;67136;47.546;21.630;2023-08-07T04:53:04;99303.16;;;14.06;100.00
77939;BME280;67136;47.546;21.630;2023-08-07T04:56:07;99302.31;;;14.14;100.00
77939;BME280;67136;47.546;21.630;2023-08-07T04:59:11;99302.09;;;14.23;100.00
77939;BME280;67136;47.546;21.630;2023-08-07T05:02:13;99305.34;;;14.33;100.00
77939;BME280;67136;47.546;21.630;2023-08-07T05:05:16;99303.66;;;14.40;100.00
77939;BME280;67136;47.546;21.630;2023-08-07T05:08:19;99303.28;;;14.51;100.00
77939;BME280;67136;47.546;21.630;2023-08-07T05:11:22;99304.53;;;14.55;100.00
77939;BME280;67136;47.546;21.630;2023-08-07T05:14:25;99300.16;;;14.70;100.00
77939;BME280;67136;47.546;21.630;2023-08-07T05:17:28;99309.97;;;14.76;100.00
77939;BME280;67136;47.546;21.630;2023-08-07T05:20:30;99310.56;;;14.86;99.32
77939;BME280;67136;47.546;21.630;2023-08-07T05:23:33;99312.63;;;15.14;100.00
77939;BME280;67136;47.546;21.630;2023-08-07T05:26:35;99311.88;;;15.20;98.73
77939;BME280;67136;47.546;21.630;2023-08-07T05:29:38;99314.00;;;15.39;97.51
77939;BME280;67136;47.546;21.630;2023-08-07T05:32:46;99317.75;;;15.59;97.36
77939;BME280;67136;47.546;21.630;2023-08-07T05:35:49;99322.22;;;15.58;95.61
77939;BME280;67136;47.546;21.630;2023-08-07T05:38:52;99313.84;;;15.55;93.10
77939;BME280;67136;47.546;21.630;2023-08-07T05:41:55;99318.00;;;15.78;93.90
77939;BME280;67136;47.546;21.630;2023-08-07T05:44:59;99329.56;;;15.92;92.81
77939;BME280;67136;47.546;21.630;2023-08-07T05:48:02;99326.59;;;16.16;90.63
77939;BME280;67136;47.546;21.630;2023-08-07T05:51:05;99326.06;;;16.42;89.99
77939;BME280;67136;47.546;21.630;2023-08-07T05:54:09;99327.94;;;16.83;88.72
77939;BME280;67136;47.546;21.630;2023-08-07T05:57:12;99335.44;;;16.80;88.35
77939;BME280;67136;47.546;21.630;2023-08-07T06:00:14;99337.37;;;16.71;86.20
77939;BME280;67136;47.546;21.630;2023-08-07T06:03:21;99347.16;;;16.77;85.91
77939;BME280;67136;47.546;21.630;2023-08-07T06:06:24;99352.97;;;16.66;86.07
77939;BME280;67136;47.546;21.630;2023-08-07T06:09:31;99354.66;;;16.95;85.00
77939;BME280;67136;47.546;21.630;2023-08-07T06:12:33;99362.34;;;16.90;84.92
77939;BME280;67136;47.546;21.630;2023-08-07T06:15:37;99357.75;;;17.26;84.97
77939;BME280;67136;47.546;21.630;2023-08-07T06:18:39;99360.63;;;17.93;82.30
77939;BME280;67136;47.546;21.630;2023-08-07T06:21:42;99353.09;;;17.56;82.44
77939;BME280;67136;47.546;21.630;2023-08-07T06:24:45;99362.88;;;17.55;82.50
77939;BME280;67136;47.546;21.630;2023-08-07T06:27:48;99362.69;;;17.91;80.04
77939;BME280;67136;47.546;21.630;2023-08-07T06:30:50;99372.19;;;18.26;77.58
77939;BME280;67136;47.546;21.630;2023-08-07T06:33:53;99367.47;;;19.79;74.68
77939;BME280;67136;47.546;21.630;2023-08-07T06:36:55;99371.34;;;19.84;70.66
77939;BME280;67136;47.546;21.630;2023-08-07T06:39:58;99367.41;;;20.06;71.88
77939;BME280;67136;47.546;21.630;2023-08-07T06:43:01;99368.75;;;19.25;71.63
77939;BME280;67136;47.546;21.630;2023-08-07T06:46:04;99377.91;;;18.90;72.84
77939;BME280;67136;47.546;21.630;2023-08-07T06:49:06;99370.28;;;18.54;74.06
77939;BME280;67136;47.546;21.630;2023-08-07T06:52:09;99379.50;;;18.71;74.49
77939;BME280;67136;47.546;21.630;2023-08-07T06:55:11;99372.75;;;18.62;76.45
77939;BME280;67136;47.546;21.630;2023-08-07T06:58:14;99382.66;;;18.40;76.03
77939;BME280;67136;47.546;21.630;2023-08-07T07:01:17;99374.41;;;18.16;75.05
77939;BME280;67136;47.546;21.630;2023-08-07T07:04:19;99377.09;;;18.29;74.24
77939;BME280;67136;47.546;21.630;2023-08-07T07:07:22;99380.94;;;18.80;73.09
77939;BME280;67136;47.546;21.630;2023-08-07T07:10:25;99377.91;;;19.16;73.01
77939;BME280;67136;47.546;21.630;2023-08-07T07:13:27;99380.47;;;18.64;72.58
77939;BME280;67136;47.546;21.630;2023-08-07T07:16:30;99386.28;;;19.06;71.43
77939;BME280;67136;47.546;21.630;2023-08-07T07:19:32;99389.34;;;19.23;70.84
77939;BME280;67136;47.546;21.630;2023-08-07T07:22:35;99389.94;;;19.05;70.47
77939;BME280;67136;47.546;21.630;2023-08-07T07:25:38;99389.13;;;18.92;70.01
77939;BME280;67136;47.546;21.630;2023-08-07T07:28:40;99386.31;;;19.45;68.40
77939;BME280;67136;47.546;21.630;2023-08-07T07:31:43;99387.12;;;19.65;67.36
77939;BME280;67136;47.546;21.630;2023-08-07T07:34:46;99389.88;;;19.97;65.79
77939;BME280;67136;47.546;21.630;2023-08-07T07:37:48;99393.09;;;20.12;65.49
77939;BME280;67136;47.546;21.630;2023-08-07T07:40:51;99401.22;;;20.30;65.36
77939;BME280;67136;47.546;21.630;2023-08-07T07:43:55;99400.47;;;20.23;64.63
77939;BME280;67136;47.546;21.630;2023-08-07T07:46:59;99400.06;;;20.00;65.22
77939;BME280;67136;47.546;21.630;2023-08-07T07:50:06;99410.28;;;20.03;64.74
77939;BME280;67136;47.546;21.630;2023-08-07T07:53:10;99411.38;;;21.21;62.28
77939;BME280;67136;47.546;21.630;2023-08-07T07:56:13;99404.84;;;21.66;58.55
77939;BME280;67136;47.546;21.630;2023-08-07T07:59:16;99417.88;;;22.53;55.83
77939;BME280;67136;47.546;21.630;2023-08-07T08:02:18;99429.63;;;21.42;59.05
77939;BME280;67136;47.546;21.630;2023-08-07T08:05:21;99429.63;;;22.93;54.60
77939;BME280;67136;47.546;21.630;2023-08-07T08:08:24;99435.97;;;21.41;57.92
77939;BME280;67136;47.546;21.630;2023-08-07T08:11:32;99431.31;;;24.28;51.48
77939;BME280;67136;47.546;21.630;2023-08-07T08:14:35;99441.31;;;23.63;52.74
77939;BME280;67136;47.546;21.630;2023-08-07T08:17:58;99436.94;;;25.39;47.47
77939;BME280;67136;47.546;21.630;2023-08-07T08:21:00;99441.22;;;26.06;45.95
77939;BME280;67136;47.546;21.630;2023-08-07T08:24:03;99449.03;;;25.58;45.22
77939;BME280;67136;47.546;21.630;2023-08-07T08:27:06;99444.22;;;24.31;47.51
77939;BME280;67136;47.546;21.630;2023-08-07T08:30:09;99453.16;;;23.90;50.50
77939;BME280;67136;47.546;21.630;2023-08-07T08:33:12;99448.44;;;23.28;50.51
77939;BME280;67136;47.546;21.630;2023-08-07T08:36:17;99459.31;;;22.97;51.42
77939;BME280;67136;47.546;21.630;2023-08-07T08:39:19;99451.53;;;23.89;49.74
77939;BME280;67136;47.546;21.630;2023-08-07T08:42:22;99468.06;;;23.33;50.66
77939;BME280;67136;47.546;21.630;2023-08-07T08:45:25;99462.31;;;23.18;49.40
77939;BME280;67136;47.546;21.630;2023-08-07T08:48:29;99482.94;;;22.64;52.31
77939;BME280;67136;47.546;21.630;2023-08-07T08:51:33;99475.13;;;24.90;45.85
77939;BME280;67136;47.546;21.630;2023-08-07T08:54:36;99469.59;;;23.53;48.27
77939;BME280;67136;47.546;21.630;2023-08-07T08:57:39;99493.47;;;23.36;48.81
77939;BME280;67136;47.546;21.630;2023-08-07T09:00:42;99487.78;;;23.32;50.00
77939;BME280;67136;47.546;21.630;2023-08-07T09:03:45;99490.69;;;22.29;51.63
77939;BME280;67136;47.546;21.630;2023-08-07T09:06:49;99486.94;;;22.73;51.79
77939;BME280;67136;47.546;21.630;2023-08-07T09:09:52;99480.56;;;23.97;49.18
77939;BME280;67136;47.546;21.630;2023-08-07T09:13:02;99492.25;;;22.18;53.23
77939;BME280;67136;47.546;21.630;2023-08-07T09:16:07;99478.62;;;22.81;50.64
77939;BME280;67136;47.546;21.630;2023-08-07T09:19:11;99491.56;;;21.80;53.69
77939;BME280;67136;47.546;21.630;2023-08-07T09:22:13;99495.03;;;22.05;53.62
77939;BME280;67136;47.546;21.630;2023-08-07T09:25:30;99498.16;;;21.71;55.15
77939;BME280;67136;47.546;21.630;2023-08-07T09:28:33;99497.16;;;22.76;52.42
77939;BME280;67136;47.546;21.630;2023-08-07T09:31:37;99502.12;;;24.77;47.51
77939;BME280;67136;47.546;21.630;2023-08-07T09:34:40;99508.41;;;22.78;51.33
77939;BME280;67136;47.546;21.630;2023-08-07T09:37:43;99511.03;;;22.42;52.02
77939;BME280;67136;47.546;21.630;2023-08-07T09:40:45;99511.34;;;21.35;55.15
77939;BME280;67136;47.546;21.630;2023-08-07T09:43:48;99530.09;;;21.71;53.10
77939;BME280;67136;47.546;21.630;2023-08-07T09:46:51;99512.94;;;22.16;52.49
77939;BME280;67136;47.546;21.630;2023-08-07T09:49:54;99520.53;;;23.40;49.75
77939;BME280;67136;47.546;21.630;2023-08-07T09:52:57;99526.16;;;22.84;50.43
77939;BME280;67136;47.546;21.630;2023-08-07T09:56:03;99531.19;;;23.40;48.89
77939;BME280;67136;47.546;21.630;2023-08-07T09:59:06;99541.22;;;21.93;51.79
77939;BME280;67136;47.546;21.630;2023-08-07T10:02:09;99526.97;;;22.48;51.11
77939;BME280;67136;47.546;21.630;2023-08-07T10:05:14;99547.59;;;21.92;51.13
77939;BME280;67136;47.546;21.630;2023-08-07T10:08:17;99549.22;;;21.93;51.61
77939;BME280;67136;47.546;21.630;2023-08-07T10:11:21;99555.34;;;21.62;52.74
77939;BME280;67136;47.546;21.630;2023-08-07T10:14:24;99550.16;;;21.05;54.31
77939;BME280;67136;47.546;21.630;2023-08-07T10:17:27;99559.69;;;23.57;47.72
77939;BME280;67136;47.546;21.630;2023-08-07T10:20:30;99571.31;;;23.63;47.83
77939;BME280;67136;47.546;21.630;2023-08-07T10:23:36;99556.94;;;22.44;50.61
77939;BME280;67136;47.546;21.630;2023-08-07T10:26:45;99559.34;;;22.88;50.12
77939;BME280;67136;47.546;21.630;2023-08-07T10:29:50;99567.91;;;23.97;46.99
77939;BME280;67136;47.546;21.630;2023-08-07T10:32:54;99555.47;;;26.29;39.76
77939;BME280;67136;47.546;21.630;2023-08-07T10:35:57;99563.41;;;24.09;43.55
77939;BME280;67136;47.546;21.630;2023-08-07T10:39:09;99557.03;;;24.44;43.38
77939;BME280;67136;47.546;21.630;2023-08-07T10:42:12;99557.72;;;24.51;43.82
77939;BME280;67136;47.546;21.630;2023-08-07T10:45:17;99551.72;;;23.39;45.53
77939;BME280;67136;47.546;21.630;2023-08-07T10:48:21;99567.41;;;23.88;44.83
77939;BME280;67136;47.546;21.630;2023-08-07T10:51:28;99563.59;;;23.25;45.72
77939;BME280;67136;47.546;21.630;2023-08-07T10:54:40;99553.56;;;22.91;47.81
77939;BME280;67136;47.546;21.630;2023-08-07T10:57:47;99566.84;;;22.37;50.03
77939;BME280;67136;47.546;21.630;2023-08-07T11:04:18;99560.94;;;24.77;42.43
77939;BME280;67136;47.546;21.630;2023-08-07T11:07:30;99564.31;;;23.50;46.14
77939;BME280;67136;47.546;21.630;2023-08-07T11:10:33;99558.94;;;22.48;47.32
77939;BME280;67136;47.546;21.630;2023-08-07T11:13:36;99557.53;;;25.04;43.19
77939;BME280;67136;47.546;21.630;2023-08-07T11:16:38;99562.38;;;26.79;38.79
77939;BME280;67136;47.546;21.630;2023-08-07T11:19:41;99549.50;;;27.25;37.79
77939;BME280;67136;47.546;21.630;2023-08-07T11:22:44;99560.34;;;27.88;37.22
77939;BME280;67136;47.546;21.630;2023-08-07T11:25:47;99558.03;;;28.80;34.29
77939;BME280;67136;47.546;21.630;2023-08-07T11:28:49;99572.63;;;29.76;32.87
77939;BME280;67136;47.546;21.630;2023-08-07T11:31:52;99549.25;;;29.04;33.97
77939;BME280;67136;47.546;21.630;2023-08-07T11:34:54;99559.69;;;29.68;32.94
77939;BME280;67136;47.546;21.630;2023-08-07T11:37:57;99567.50;;;29.99;31.78
77939;BME280;67136;47.546;21.630;2023-08-07T11:41:01;99561.72;;;29.20;33.27
77939;BME280;67136;47.546;21.630;2023-08-07T11:44:04;99559.37;;;29.64;31.57
77939;BME280;67136;47.546;21.630;2023-08-07T11:47:09;99560.16;;;29.35;32.21
77939;BME280;67136;47.546;21.630;2023-08-07T11:50:14;99560.00;;;31.10;30.16
77939;BME280;67136;47.546;21.630;2023-08-07T11:53:17;99564.22;;;28.80;33.15
77939;BME280;67136;47.546;21.630;2023-08-07T11:56:20;99562.56;;;28.69;34.02
77939;BME280;67136;47.546;21.630;2023-08-07T11:59:23;99569.88;;;28.37;33.50
77939;BME280;67136;47.546;21.630;2023-08-07T12:02:25;99584.47;;;30.55;30.80
77939;BME280;67136;47.546;21.630;2023-08-07T12:05:38;99579.13;;;30.00;31.01
77939;BME280;67136;47.546;21.630;2023-08-07T12:08:43;99568.31;;;30.40;29.75
77939;BME280;67136;47.546;21.630;2023-08-07T12:11:45;99586.66;;;29.98;29.93
77939;BME280;67136;47.546;21.630;2023-08-07T12:14:52;99576.63;;;29.58;29.02
77939;BME280;67136;47.546;21.630;2023-08-07T12:18:02;99579.41;;;29.01;30.96
77939;BME280;67136;47.546;21.630;2023-08-07T12:21:06;99585.28;;;27.30;33.90
77939;BME280;67136;47.546;21.630;2023-08-07T12:24:09;99588.06;;;26.75;34.84
77939;BME280;67136;47.546;21.630;2023-08-07T12:27:11;99594.72;;;25.17;38.98
77939;BME280;67136;47.546;21.630;2023-08-07T12:30:15;99586.72;;;26.95;35.96
77939;BME280;67136;47.546;21.630;2023-08-07T12:33:18;99587.72;;;29.00;33.03
77939;BME280;67136;47.546;21.630;2023-08-07T12:36:21;99582.22;;;28.75;33.31
77939;BME280;67136;47.546;21.630;2023-08-07T12:39:23;99595.53;;;29.68;31.36
77939;BME280;67136;47.546;21.630;2023-08-07T12:42:46;99604.16;;;28.15;32.42
77939;BME280;67136;47.546;21.630;2023-08-07T12:45:50;99589.34;;;29.98;29.81
77939;BME280;67136;47.546;21.630;2023-08-07T12:48:55;99597.72;;;30.21;30.12
77939;BME280;67136;47.546;21.630;2023-08-07T12:51:58;99600.69;;;30.35;29.87
77939;BME280;67136;47.546;21.630;2023-08-07T12:55:03;99602.50;;;28.87;31.17
77939;BME280;67136;47.546;21.630;2023-08-07T12:58:06;99613.78;;;28.43;31.67
77939;BME280;67136;47.546;21.630;2023-08-07T13:01:09;99610.94;;;30.53;29.42
77939;BME280;67136;47.546;21.630;2023-08-07T13:04:12;99601.28;;;31.75;27.62
77939;BME280;67136;47.546;21.630;2023-08-07T13:07:17;99608.34;;;31.66;27.76
77939;BME280;67136;47.546;21.630;2023-08-07T13:10:20;99609.19;;;31.66;27.72
77939;BME280;67136;47.546;21.630;2023-08-07T13:13:23;99597.66;;;31.45;28.68
77939;BME280;67136;47.546;21.630;2023-08-07T13:16:26;99602.34;;;28.62;31.73
77939;BME280;67136;47.546;21.630;2023-08-07T13:19:29;99598.06;;;26.80;34.90
77939;BME280;67136;47.546;21.630;2023-08-07T13:22:31;99610.19;;;25.83;37.03
77939;BME280;67136;47.546;21.630;2023-08-07T13:25:34;99611.63;;;25.46;37.47
77939;BME280;67136;47.546;21.630;2023-08-07T13:28:36;99609.63;;;25.53;37.81
77939;BME280;67136;47.546;21.630;2023-08-07T13:31:39;99620.16;;;26.32;36.47
77939;BME280;67136;47.546;21.630;2023-08-07T13:34:48;99618.97;;;26.61;35.79
77939;BME280;67136;47.546;21.630;2023-08-07T13:37:51;99621.63;;;26.61;36.04
77939;BME280;67136;47.546;21.630;2023-08-07T13:40:53;99615.56;;;26.82;35.81
77939;BME280;67136;47.546;21.630;2023-08-07T13:43:56;99614.22;;;27.98;34.05
77939;BME280;67136;47.546;21.630;2023-08-07T13:46:58;99612.06;;;27.04;33.15
77939;BME280;67136;47.546;21.630;2023-08-07T13:50:01;99620.31;;;27.62;32.54
77939;BME280;67136;47.546;21.630;2023-08-07T13:53:04;99620.44;;;27.29;33.62
77939;BME280;67136;47.546;21.630;2023-08-07T13:56:16;99637.09;;;26.05;36.15
77939;BME280;67136;47.546;21.630;2023-08-07T13:59:18;99635.84;;;24.77;38.93
77939;BME280;67136;47.546;21.630;2023-08-07T14:02:21;99639.44;;;24.36;38.84
77939;BME280;67136;47.546;21.630;2023-08-07T14:05:24;99634.13;;;23.65;40.42
77939;BME280;67136;47.546;21.630;2023-08-07T14:08:27;99646.91;;;25.43;37.52
77939;BME280;67136;47.546;21.630;2023-08-07T14:11:30;99643.25;;;24.28;40.25
77939;BME280;67136;47.546;21.630;2023-08-07T14:14:33;99639.72;;;25.32;38.80
77939;BME280;67136;47.546;21.630;2023-08-07T14:17:36;99636.50;;;26.85;35.72
77939;BME280;67136;47.546;21.630;2023-08-07T14:20:38;99640.75;;;25.31;38.72
77939;BME280;67136;47.546;21.630;2023-08-07T14:24:01;99643.03;;;25.50;37.60
77939;BME280;67136;47.546;21.630;2023-08-07T14:27:04;99639.19;;;25.58;37.23
77939;BME280;67136;47.546;21.630;2023-08-07T14:30:07;99642.72;;;26.03;35.86
77939;BME280;67136;47.546;21.630;2023-08-07T14:33:09;99648.09;;;26.36;36.40
77939;BME280;67136;47.546;21.630;2023-08-07T14:36:12;99651.84;;;24.30;40.14
77939;BME280;67136;47.546;21.630;2023-08-07T14:39:16;99650.66;;;24.26;40.42
77939;BME280;67136;47.546;21.630;2023-08-07T14:42:19;99642.81;;;24.54;39.64
77939;BME280;67136;47.546;21.630;2023-08-07T14:45:21;99648.09;;;24.08;40.39
77939;BME280;67136;47.546;21.630;2023-08-07T14:48:26;99640.44;;;24.23;40.39
77939;BME280;67136;47.546;21.630;2023-08-07T14:51:28;99642.00;;;24.31;40.79
77939;BME280;67136;47.546;21.630;2023-08-07T14:54:31;99628.16;;;24.92;39.61
77939;BME280;67136;47.546;21.630;2023-08-07T14:57:35;99625.78;;;25.07;39.41
77939;BME280;67136;47.546;21.630;2023-08-07T15:00:37;99633.53;;;23.33;44.07
77939;BME280;67136;47.546;21.630;2023-08-07T15:03:40;99640.84;;;23.38;43.98
77939;BME280;67136;47.546;21.630;2023-08-07T15:06:43;99635.78;;;23.12;42.77
77939;BME280;67136;47.546;21.630;2023-08-07T15:09:49;99644.63;;;22.94;42.64
77939;BME280;67136;47.546;21.630;2023-08-07T15:12:52;99652.31;;;22.10;44.86
77939;BME280;67136;47.546;21.630;2023-08-07T15:15:55;99644.19;;;22.55;44.46
77939;BME280;67136;47.546;21.630;2023-08-07T15:18:58;99661.09;;;22.11;45.69
77939;BME280;67136;47.546;21.630;2023-08-07T15:22:00;99660.75;;;22.01;46.05
77939;BME280;67136;47.546;21.630;2023-08-07T15:25:03;99660.78;;;21.63;47.23
77939;BME280;67136;47.546;21.630;2023-08-07T15:28:06;99667.13;;;21.12;47.65
77939;BME280;67136;47.546;21.630;2023-08-07T15:31:09;99664.16;;;21.39;47.86
77939;BME280;67136;47.546;21.630;2023-08-07T15:34:11;99661.41;;;20.88;49.26
77939;BME280;67136;47.546;21.630;2023-08-07T15:37:14;99670.41;;;20.94;50.17
77939;BME280;67136;47.546;21.630;2023-08-07T15:40:17;99680.69;;;20.25;51.19
77939;BME280;67136;47.546;21.630;2023-08-07T15:43:19;99684.28;;;19.92;51.86
77939;BME280;67136;47.546;21.630;2023-08-07T15:46:22;99678.75;;;20.00;52.01
77939;BME280;67136;47.546;21.630;2023-08-07T15:49:24;99684.94;;;20.20;52.76
77939;BME280;67136;47.546;21.630;2023-08-07T15:52:27;99681.41;;;20.00;53.48
77939;BME280;67136;47.546;21.630;2023-08-07T15:55:29;99688.37;;;20.01;54.58
77939;BME280;67136;47.546;21.630;2023-08-07T15:58:34;99690.75;;;19.69;54.64
77939;BME280;67136;47.546;21.630;2023-08-07T16:01:37;99689.06;;;19.55;55.70
77939;BME280;67136;47.546;21.630;2023-08-07T16:04:40;99691.50;;;19.50;56.70